Time;durP1;ratioP1;P1;durP2;ratioP2;P2;SDS_P1;SDS_P2;PMS_P1;PMS_P2;Temp;Humidity;BMP_temperature;BMP_pressure;BME280_temperature;BME280_humidity;BME280_pressure;Samples;Min_cycle;Max_cycle;Signal;HPM_P1;HPM_P2
2022/06/09 00:01:12;;;;;;;7.57;5.83;;;19.10;1.00;;;;;;5047061;28;20456;-77
2022/06/09 00:03:44;;;;;;;7.73;6.67;;;19.10;1.00;;;;;;5062103;28;20569;-77
2022/06/09 00:06:12;;;;;;;7.40;5.40;;;19.10;1.00;;;;;;5056669;28;21085;-78
2022/06/09 00:08:43;;;;;;;6.70;5.90;;;19.10;1.00;;;;;;5062432;28;20534;-78
2022/06/09 00:11:14;;;;;;;6.10;5.40;;;19.10;1.00;;;;;;5066253;28;20478;-78
2022/06/09 00:13:41;;;;;;;8.03;5.73;;;19.20;1.00;;;;;;5053344;28;20539;-78
2022/06/09 00:16:09;;;;;;;7.20;5.50;;;19.20;1.00;;;;;;5065355;28;20570;-77
2022/06/09 00:18:36;;;;;;;7.20;5.67;;;19.30;1.00;;;;;;5060555;28;20448;-78
2022/06/09 00:21:05;;;;;;;8.10;6.03;;;19.20;1.00;;;;;;5063384;28;20845;-78
2022/06/09 00:23:32;;;;;;;6.90;5.33;;;19.30;1.00;;;;;;5055906;28;20572;-79
2022/06/09 00:25:58;;;;;;;6.00;4.90;;;19.40;1.00;;;;;;5069822;28;20602;-78
2022/06/09 00:28:25;;;;;;;8.20;5.73;;;19.50;1.00;;;;;;5054519;28;20561;-78
2022/06/09 00:30:52;;;;;;;7.40;5.10;;;19.60;1.00;;;;;;5065336;28;20571;-77
2022/06/09 00:33:19;;;;;;;6.17;5.10;;;19.60;1.00;;;;;;5063240;28;20996;-78
2022/06/09 00:35:46;;;;;;;6.00;4.63;;;19.70;1.00;;;;;;5060777;28;20473;-79
2022/06/09 00:38:16;;;;;;;5.50;4.67;;;19.70;1.00;;;;;;5053071;28;20463;-77
2022/06/09 00:40:43;;;;;;;6.20;4.80;;;19.80;1.00;;;;;;5064137;28;20439;-78
2022/06/09 00:43:10;;;;;;;7.20;5.77;;;19.80;1.00;;;;;;5056105;28;20469;-78
2022/06/09 00:45:39;;;;;;;7.20;5.07;;;19.90;1.00;;;;;;5061333;28;20567;-77
2022/06/09 00:48:21;;;;;;;5.93;5.20;;;19.80;1.00;;;;;;5061654;28;20462;-78
2022/06/09 00:50:51;;;;;;;6.90;5.10;;;19.90;1.00;;;;;;5061605;28;20466;-78
2022/06/09 00:53:23;;;;;;;5.77;4.73;;;19.90;1.00;;;;;;5059937;28;20538;-78
2022/06/09 00:55:51;;;;;;;8.77;5.10;;;19.90;1.00;;;;;;5060804;28;20641;-77
2022/06/09 00:58:24;;;;;;;6.00;4.40;;;19.90;1.00;;;;;;5055434;28;20456;-76
2022/06/09 01:00:55;;;;;;;6.03;4.60;;;19.90;1.00;;;;;;5061234;28;20455;-76
2022/06/09 01:03:26;;;;;;;6.47;4.63;;;19.90;1.00;;;;;;5059029;28;20463;-77
2022/06/09 01:05:58;;;;;;;6.93;4.70;;;19.90;1.00;;;;;;5060661;28;20472;-79
2022/06/09 01:08:26;;;;;;;6.30;4.57;;;20.00;1.00;;;;;;5061125;28;20614;-76
2022/06/09 01:10:53;;;;;;;6.33;4.10;;;20.00;1.00;;;;;;5061722;28;20960;-77
2022/06/09 01:13:22;;;;;;;5.90;3.83;;;20.00;1.00;;;;;;5055255;28;20887;-77
2022/06/09 01:15:55;;;;;;;5.87;4.10;;;20.00;1.00;;;;;;5067370;28;20549;-76
2022/06/09 01:18:31;;;;;;;7.70;4.40;;;20.00;1.00;;;;;;5060469;28;20451;-77
2022/06/09 01:21:03;;;;;;;5.70;3.80;;;20.00;1.00;;;;;;5060100;28;20491;-77
2022/06/09 01:24:24;;;;;;;6.33;3.90;;;20.00;1.00;;;;;;5060924;28;20467;-77
2022/06/09 01:27:12;;;;;;;6.00;4.20;;;20.00;1.00;;;;;;5048873;28;20471;-78
2022/06/09 01:30:06;;;;;;;5.70;3.60;;;19.90;1.00;;;;;;5053187;28;20459;-78
2022/06/09 01:32:38;;;;;;;6.63;3.70;;;19.90;1.00;;;;;;5063206;28;21030;-77
2022/06/09 01:35:14;;;;;;;7.20;3.90;;;19.90;1.00;;;;;;5067157;28;20423;-76
2022/06/09 01:37:43;;;;;;;7.10;4.13;;;19.90;1.00;;;;;;5065346;28;20475;-76
2022/06/09 01:40:13;;;;;;;5.87;3.47;;;19.80;1.00;;;;;;5064059;28;20562;-77
2022/06/09 01:42:42;;;;;;;5.80;3.70;;;19.80;1.00;;;;;;5064953;28;20456;-77
2022/06/09 01:45:14;;;;;;;6.40;3.77;;;19.70;1.00;;;;;;5060357;28;20558;-77
2022/06/09 01:47:49;;;;;;;6.50;3.43;;;19.70;1.00;;;;;;5060986;28;20472;-77
2022/06/09 01:50:25;;;;;;;6.03;3.83;;;19.70;1.00;;;;;;5066615;28;20511;-77
2022/06/09 01:52:55;;;;;;;5.40;3.40;;;19.60;1.00;;;;;;5067055;28;20589;-77
2022/06/09 01:55:24;;;;;;;6.17;3.20;;;19.60;1.00;;;;;;5062392;28;21028;-77
2022/06/09 01:57:57;;;;;;;4.90;3.30;;;19.60;1.00;;;;;;5062762;28;20563;-77
2022/06/09 02:00:25;;;;;;;5.63;3.30;;;19.40;1.00;;;;;;5065888;28;20463;-78
2022/06/09 02:03:06;;;;;;;6.40;3.20;;;19.40;1.00;;;;;;5064401;28;20467;-77
2022/06/09 02:05:39;;;;;;;5.90;3.43;;;19.40;1.00;;;;;;5063930;28;20543;-77
2022/06/09 02:08:09;;;;;;;5.27;2.80;;;19.40;1.00;;;;;;5065497;28;20593;-77
2022/06/09 02:10:40;;;;;;;4.93;2.83;;;19.40;1.00;;;;;;5063286;28;20454;-77
2022/06/09 02:13:11;;;;;;;6.63;3.27;;;19.40;1.00;;;;;;5063304;28;21233;-78
2022/06/09 02:15:42;;;;;;;5.43;3.03;;;19.40;1.00;;;;;;5064097;28;20525;-76
2022/06/09 02:18:13;;;;;;;5.23;2.80;;;19.50;1.00;;;;;;5062681;28;20927;-77
2022/06/09 02:20:43;;;;;;;6.50;2.90;;;19.50;1.00;;;;;;5065403;28;20978;-77
2022/06/09 02:23:11;;;;;;;5.03;2.77;;;19.50;1.00;;;;;;5064933;28;20494;-78
2022/06/09 02:25:39;;;;;;;8.33;3.10;;;19.40;1.00;;;;;;5063816;28;20474;-76
2022/06/09 02:28:08;;;;;;;5.37;2.97;;;19.40;1.00;;;;;;5064037;28;20467;-78
2022/06/09 02:30:36;;;;;;;6.23;2.90;;;19.30;1.00;;;;;;5063854;28;20471;-77
2022/06/09 02:33:04;;;;;;;6.00;3.03;;;19.30;1.00;;;;;;5067585;28;20467;-77
2022/06/09 02:35:32;;;;;;;5.60;2.70;;;19.20;1.00;;;;;;5066085;28;20462;-76
2022/06/09 02:38:00;;;;;;;5.80;3.13;;;19.30;1.00;;;;;;5064601;28;20479;-77
2022/06/09 02:40:28;;;;;;;5.80;2.70;;;19.30;1.00;;;;;;5063511;28;20470;-77
2022/06/09 02:42:55;;;;;;;6.43;2.90;;;19.30;1.00;;;;;;5065403;28;20463;-77
2022/06/09 02:45:23;;;;;;;6.20;2.57;;;19.20;1.00;;;;;;5065070;28;20464;-76
2022/06/09 02:47:50;;;;;;;5.90;2.70;;;19.10;1.00;;;;;;5064237;28;20475;-76
2022/06/09 02:50:18;;;;;;;6.77;3.00;;;19.10;1.00;;;;;;5066140;28;20453;-76
2022/06/09 02:52:49;;;;;;;6.50;2.80;;;19.10;1.00;;;;;;5065619;28;20458;-76
2022/06/09 02:55:16;;;;;;;6.37;2.97;;;19.00;1.00;;;;;;5061548;28;20456;-76
2022/06/09 02:57:42;;;;;;;4.93;2.47;;;19.00;1.00;;;;;;5063485;28;20464;-77
2022/06/09 03:00:14;;;;;;;4.77;2.13;;;18.90;1.00;;;;;;5061524;28;20448;-77
2022/06/09 03:02:44;;;;;;;7.20;2.47;;;18.90;1.00;;;;;;5064883;28;20972;-77
2022/06/09 03:05:14;;;;;;;4.87;2.17;;;18.90;1.00;;;;;;5063047;28;20471;-77
2022/06/09 03:07:41;;;;;;;5.50;2.50;;;18.80;1.00;;;;;;5063522;28;20471;-77
2022/06/09 03:10:10;;;;;;;4.90;2.60;;;18.80;1.00;;;;;;5067228;28;20436;-76
2022/06/09 03:12:37;;;;;;;7.23;2.50;;;18.80;1.00;;;;;;5066035;28;20962;-76
2022/06/09 03:15:07;;;;;;;5.70;3.00;;;18.80;1.00;;;;;;5063304;28;20464;-76
2022/06/09 03:17:34;;;;;;;5.73;2.63;;;18.70;1.00;;;;;;5067154;28;20458;-78
2022/06/09 03:20:02;;;;;;;5.00;2.60;;;18.70;1.00;;;;;;5067988;28;20494;-77
2022/06/09 03:22:32;;;;;;;8.50;3.00;;;18.60;1.00;;;;;;5063772;28;20453;-76
2022/06/09 03:24:59;;;;;;;5.13;2.47;;;18.60;1.00;;;;;;5057457;28;20511;-76
2022/06/09 03:27:29;;;;;;;4.97;2.50;;;18.50;1.00;;;;;;5063660;28;21059;-77
2022/06/09 03:30:01;;;;;;;7.93;3.00;;;18.50;1.00;;;;;;5065659;28;20451;-76
2022/06/09 03:32:27;;;;;;;7.90;3.90;;;18.40;1.00;;;;;;5064027;28;20463;-76
2022/06/09 03:34:55;;;;;;;5.90;2.90;;;18.50;1.00;;;;;;5069610;28;20511;-78
2022/06/09 03:37:23;;;;;;;7.17;3.60;;;18.50;1.00;;;;;;5061902;28;20479;-78
2022/06/09 03:39:51;;;;;;;5.33;3.23;;;18.50;1.00;;;;;;5065457;28;20462;-76
2022/06/09 03:42:18;;;;;;;5.97;3.30;;;18.50;1.00;;;;;;5061354;28;20544;-77
2022/06/09 03:44:47;;;;;;;5.80;2.93;;;18.50;1.00;;;;;;5062160;28;20459;-76
2022/06/09 03:47:14;;;;;;;7.00;3.10;;;18.50;1.00;;;;;;5058885;28;20477;-78
2022/06/09 03:49:42;;;;;;;7.50;3.63;;;18.50;1.00;;;;;;5065181;28;20581;-77
2022/06/09 03:52:08;;;;;;;7.00;2.93;;;18.40;1.00;;;;;;5059733;28;20973;-79
2022/06/09 03:54:35;;;;;;;5.50;3.03;;;18.40;1.00;;;;;;5069173;28;20460;-78
2022/06/09 03:57:02;;;;;;;7.63;3.30;;;18.50;1.00;;;;;;5066333;28;20474;-76
2022/06/09 03:59:29;;;;;;;7.33;2.93;;;18.50;1.00;;;;;;5062844;28;21302;-77
2022/06/09 04:01:57;;;;;;;7.00;3.00;;;18.40;1.00;;;;;;5062062;28;20845;-77
2022/06/09 04:04:24;;;;;;;9.17;2.90;;;18.40;1.00;;;;;;5056248;28;20452;-77
2022/06/09 04:06:52;;;;;;;6.10;3.33;;;18.40;1.00;;;;;;5061664;28;20487;-78
2022/06/09 04:09:20;;;;;;;8.20;3.20;;;18.30;1.00;;;;;;5063649;28;20499;-77
2022/06/09 04:11:47;;;;;;;8.90;2.87;;;18.30;1.00;;;;;;5066534;28;20623;-79
2022/06/09 04:14:14;;;;;;;6.53;3.27;;;18.30;1.00;;;;;;5063927;28;20468;-77
2022/06/09 04:16:44;;;;;;;5.60;3.23;;;18.40;1.00;;;;;;5065590;28;20471;-78
2022/06/09 04:19:15;;;;;;;5.30;2.43;;;18.30;1.00;;;;;;5051019;28;20529;-77
2022/06/09 04:21:43;;;;;;;6.67;3.40;;;18.30;1.00;;;;;;5071023;28;20890;-77
2022/06/09 04:24:11;;;;;;;6.30;3.20;;;18.40;1.00;;;;;;5062078;28;20464;-76
2022/06/09 04:26:39;;;;;;;9.63;3.70;;;18.40;1.00;;;;;;5064172;28;20920;-78
2022/06/09 04:29:12;;;;;;;6.10;3.23;;;18.40;1.00;;;;;;5068112;28;20462;-77
2022/06/09 04:31:39;;;;;;;6.40;3.50;;;18.40;1.00;;;;;;5064942;28;20967;-77
2022/06/09 04:34:08;;;;;;;6.20;3.10;;;18.40;1.00;;;;;;5063675;28;20427;-76
2022/06/09 04:36:37;;;;;;;6.10;3.80;;;18.40;1.00;;;;;;5063411;28;20468;-77
2022/06/09 04:39:08;;;;;;;5.90;2.83;;;18.40;1.00;;;;;;5062036;28;20530;-77
2022/06/09 04:41:38;;;;;;;6.83;2.87;;;18.40;1.00;;;;;;5066841;28;20491;-79
2022/06/09 04:44:10;;;;;;;8.97;2.97;;;18.50;1.00;;;;;;5062519;28;20618;-79
2022/06/09 04:46:37;;;;;;;6.90;3.40;;;18.50;1.00;;;;;;5065010;28;20554;-77
2022/06/09 04:49:05;;;;;;;9.23;3.67;;;18.50;1.00;;;;;;5069789;28;20459;-79
2022/06/09 04:51:32;;;;;;;6.90;3.23;;;18.60;1.00;;;;;;5065527;28;20460;-80
2022/06/09 04:54:00;;;;;;;5.90;2.30;;;18.70;1.00;;;;;;5067168;28;20435;-79
2022/06/09 04:56:33;;;;;;;7.33;2.90;;;18.70;1.00;;;;;;5065916;28;20539;-79
2022/06/09 04:59:01;;;;;;;7.20;3.00;;;18.70;1.00;;;;;;5063382;28;21551;-79
2022/06/09 05:01:31;;;;;;;5.83;3.20;;;18.80;1.00;;;;;;5064564;28;20491;-80
2022/06/09 05:04:02;;;;;;;7.20;3.57;;;18.80;1.00;;;;;;5063862;28;20944;-81
2022/06/09 05:06:35;;;;;;;6.23;2.70;;;18.90;1.00;;;;;;5065747;28;20495;-79
2022/06/09 05:09:04;;;;;;;5.83;3.00;;;19.10;1.00;;;;;;5065564;28;20451;-79
2022/06/09 05:11:33;;;;;;;5.57;2.50;;;19.30;1.00;;;;;;5069627;28;20467;-82
2022/06/09 05:14:00;;;;;;;6.00;2.40;;;19.50;1.00;;;;;;5063159;28;20468;-80
2022/06/09 05:16:40;;;;;;;5.97;2.47;;;19.60;1.00;;;;;;5062513;28;20652;-81
2022/06/09 05:19:16;;;;;;;5.63;2.47;;;19.70;1.00;;;;;;5064743;28;20495;-81
2022/06/09 05:21:43;;;;;;;6.20;2.90;;;19.90;1.00;;;;;;5072895;28;20542;-80
2022/06/09 05:24:14;;;;;;;5.37;2.70;;;20.10;1.00;;;;;;5064839;28;20459;-79
2022/06/09 05:26:41;;;;;;;5.57;2.07;;;20.30;1.00;;;;;;5075249;28;20474;-79
2022/06/09 05:29:14;;;;;;;6.77;3.73;;;20.50;1.00;;;;;;5066376;28;20435;-80
2022/06/09 05:31:41;;;;;;;5.90;2.90;;;20.50;1.00;;;;;;5071927;28;20431;-81
2022/06/09 05:34:13;;;;;;;4.83;2.20;;;20.50;1.00;;;;;;5072778;28;20558;-82
2022/06/09 05:36:43;;;;;;;7.70;2.73;;;20.60;1.00;;;;;;5077656;28;20475;-82
2022/06/09 05:44:52;;;;;;;7.07;2.70;;;20.80;1.00;;;;;;5062314;28;20441;-82
2022/06/09 05:47:21;;;;;;;6.43;2.07;;;20.80;1.00;;;;;;5066887;28;20426;-81
2022/06/09 05:49:53;;;;;;;6.87;2.43;;;20.80;1.00;;;;;;5076045;28;20542;-81
2022/06/09 05:52:23;;;;;;;6.70;2.73;;;20.70;1.00;;;;;;5072749;28;20459;-77
2022/06/09 05:54:52;;;;;;;5.33;2.17;;;20.70;1.00;;;;;;5072036;28;20575;-77
2022/06/09 05:57:23;;;;;;;6.10;2.47;;;20.80;1.00;;;;;;5066916;28;20554;-79
2022/06/09 05:59:53;;;;;;;7.20;2.63;;;20.90;1.00;;;;;;5064307;28;20587;-77
2022/06/09 06:02:22;;;;;;;7.93;3.20;;;20.80;1.00;;;;;;5077270;28;20606;-79
2022/06/09 06:04:55;;;;;;;6.43;2.47;;;20.80;1.00;;;;;;5073035;28;20986;-77
2022/06/09 06:07:21;;;;;;;8.80;2.40;;;20.80;1.00;;;;;;5070287;28;20556;-77
2022/06/09 06:09:48;;;;;;;6.17;2.20;;;20.90;1.00;;;;;;5068339;28;20470;-77
2022/06/09 06:12:16;;;;;;;7.20;2.53;;;20.80;1.00;;;;;;5063310;28;20467;-76
2022/06/09 06:14:44;;;;;;;5.50;2.20;;;20.90;1.00;;;;;;5066449;28;20476;-76
2022/06/09 06:17:11;;;;;;;5.53;2.10;;;20.90;1.00;;;;;;5063182;28;20481;-75
2022/06/09 06:19:41;;;;;;;6.50;2.90;;;20.90;1.00;;;;;;5064720;28;20552;-77
2022/06/09 06:22:08;;;;;;;8.50;2.60;;;20.90;1.00;;;;;;5064922;28;20459;-77
2022/06/09 06:24:36;;;;;;;6.73;2.03;;;20.90;1.00;;;;;;5068919;28;20492;-77
2022/06/09 06:27:04;;;;;;;6.30;1.60;;;20.90;1.00;;;;;;5067933;28;20785;-78
2022/06/09 06:29:33;;;;;;;7.70;2.80;;;20.90;1.00;;;;;;5063923;28;20530;-77
2022/06/09 06:32:00;;;;;;;4.37;1.57;;;21.00;1.00;;;;;;5065040;28;20467;-76
2022/06/09 06:34:27;;;;;;;5.47;1.90;;;21.10;1.00;;;;;;5060858;28;21029;-77
2022/06/09 06:36:54;;;;;;;5.73;1.77;;;21.10;1.00;;;;;;5066484;28;20851;-77
2022/06/09 06:39:23;;;;;;;5.20;1.60;;;21.00;1.00;;;;;;5059027;28;20866;-76
2022/06/09 06:41:50;;;;;;;4.80;1.70;;;21.00;1.00;;;;;;5059295;28;20456;-76
2022/06/09 06:44:17;;;;;;;5.30;2.30;;;21.10;1.00;;;;;;5063292;28;20909;-77
2022/06/09 06:46:45;;;;;;;5.80;1.43;;;21.20;1.00;;;;;;5064151;28;20472;-77
2022/06/09 06:49:13;;;;;;;7.07;1.93;;;21.30;1.00;;;;;;5062211;28;20854;-76
2022/06/09 06:51:40;;;;;;;5.70;1.87;;;21.30;1.00;;;;;;5059888;28;20456;-76
2022/06/09 06:54:07;;;;;;;5.47;2.10;;;21.30;1.00;;;;;;5064033;28;20491;-77
2022/06/09 06:56:35;;;;;;;6.23;1.77;;;21.40;1.00;;;;;;5061897;28;20478;-75
2022/06/09 06:59:03;;;;;;;5.47;2.40;;;21.50;1.00;;;;;;5059864;28;20455;-77
2022/06/09 07:01:31;;;;;;;5.27;1.70;;;21.60;1.00;;;;;;5053292;28;20475;-78
2022/06/09 07:04:00;;;;;;;5.50;1.60;;;21.70;1.00;;;;;;5058155;28;20457;-77
2022/06/09 07:06:27;;;;;;;7.03;1.63;;;21.90;1.00;;;;;;5052940;28;20483;-75
2022/06/09 07:08:55;;;;;;;6.03;1.50;;;22.00;1.00;;;;;;5057483;28;20902;-76
2022/06/09 07:11:22;;;;;;;5.00;1.50;;;22.00;1.00;;;;;;5057912;28;20519;-76
2022/06/09 07:13:49;;;;;;;5.00;1.80;;;21.90;1.00;;;;;;5063796;28;20967;-77
2022/06/09 07:16:17;;;;;;;7.37;1.93;;;21.80;1.00;;;;;;5062576;28;20513;-76
2022/06/09 07:18:48;;;;;;;5.73;1.50;;;21.70;1.00;;;;;;5065064;28;20460;-75
2022/06/09 07:21:17;;;;;;;6.23;2.27;;;21.60;1.00;;;;;;5061234;28;20475;-76
2022/06/09 07:23:45;;;;;;;6.30;3.47;;;21.60;1.00;;;;;;5066395;28;21443;-75
2022/06/09 07:26:13;;;;;;;6.37;2.40;;;21.60;1.00;;;;;;5061851;28;20500;-76
2022/06/09 07:28:41;;;;;;;4.97;1.80;;;21.50;1.00;;;;;;5062190;28;20950;-76
2022/06/09 07:31:09;;;;;;;5.13;1.83;;;21.40;1.00;;;;;;5065647;28;20455;-76
2022/06/09 07:33:38;;;;;;;5.27;2.00;;;21.40;1.00;;;;;;5062662;28;20463;-76
2022/06/09 07:36:09;;;;;;;6.30;2.20;;;21.30;1.00;;;;;;5062336;28;20525;-77
2022/06/09 07:38:37;;;;;;;5.50;2.10;;;21.40;1.00;;;;;;5059476;28;21300;-75
2022/06/09 07:41:04;;;;;;;6.10;2.30;;;21.40;1.00;;;;;;5059434;28;20442;-76
2022/06/09 07:43:32;;;;;;;8.17;3.47;;;21.30;1.00;;;;;;5055396;28;20982;-76
2022/06/09 07:46:00;;;;;;;6.33;2.50;;;21.30;1.00;;;;;;5058939;28;20475;-76
2022/06/09 07:48:27;;;;;;;9.20;1.97;;;21.20;1.00;;;;;;5056131;28;20453;-75
2022/06/09 07:50:54;;;;;;;10.00;3.10;;;21.20;1.00;;;;;;5060834;28;20461;-75
2022/06/09 07:53:22;;;;;;;7.30;2.57;;;21.40;1.00;;;;;;5063311;28;20527;-76
2022/06/09 07:55:51;;;;;;;9.73;2.70;;;21.60;1.00;;;;;;5060447;28;20558;-76
2022/06/09 07:58:19;;;;;;;9.03;2.30;;;21.80;1.00;;;;;;5065004;28;20546;-78
2022/06/09 08:00:48;;;;;;;6.27;2.43;;;21.90;1.00;;;;;;5059028;28;20459;-76
2022/06/09 08:03:18;;;;;;;8.93;3.30;;;22.00;1.00;;;;;;5062198;28;20866;-76
2022/06/09 08:05:45;;;;;;;9.07;3.87;;;22.00;1.00;;;;;;5064089;28;20501;-76
2022/06/09 08:08:12;;;;;;;10.03;3.97;;;22.20;1.00;;;;;;5060702;28;20464;-77
2022/06/09 08:10:40;;;;;;;6.80;3.00;;;22.20;1.00;;;;;;5058859;28;20464;-76
2022/06/09 08:13:09;;;;;;;6.00;2.40;;;22.10;1.00;;;;;;5060295;28;22112;-76
2022/06/09 08:15:37;;;;;;;6.07;2.50;;;22.00;1.00;;;;;;5061482;28;20478;-76
2022/06/09 08:18:05;;;;;;;7.00;2.60;;;21.80;1.00;;;;;;5060755;28;20534;-77
2022/06/09 08:20:38;;;;;;;5.70;2.70;;;21.40;1.00;;;;;;5063524;28;20473;-75
2022/06/09 08:23:10;;;;;;;5.17;2.20;;;21.20;1.00;;;;;;5064852;28;20456;-77
2022/06/09 08:25:39;;;;;;;7.90;3.00;;;21.00;1.00;;;;;;5059612;28;20460;-76
2022/06/09 08:28:08;;;;;;;8.10;2.53;;;20.80;1.00;;;;;;5062539;28;20468;-76
2022/06/09 08:30:36;;;;;;;5.93;2.80;;;20.70;1.00;;;;;;5060809;28;20461;-77
2022/06/09 08:33:04;;;;;;;6.77;2.30;;;20.60;1.00;;;;;;5058676;28;20543;-76
2022/06/09 08:35:32;;;;;;;8.23;2.70;;;20.60;1.00;;;;;;5064363;28;20477;-77
2022/06/09 08:37:58;;;;;;;6.83;3.10;;;20.60;1.00;;;;;;5060874;28;20550;-77
2022/06/09 08:40:32;;;;;;;5.70;2.70;;;20.50;1.00;;;;;;5060776;28;21373;-77
2022/06/09 08:43:15;;;;;;;10.57;4.70;;;20.40;1.00;;;;;;5060924;28;20454;-76
2022/06/09 08:45:46;;;;;;;8.53;3.23;;;20.40;1.00;;;;;;5052796;28;20557;-76
2022/06/09 08:48:18;;;;;;;6.63;2.97;;;20.30;1.00;;;;;;5070955;28;20450;-78
2022/06/09 08:50:53;;;;;;;6.33;2.60;;;20.20;1.00;;;;;;5058720;28;20451;-76
2022/06/09 08:53:25;;;;;;;7.67;3.10;;;20.20;1.00;;;;;;5060107;28;20889;-76
2022/06/09 08:55:55;;;;;;;7.13;2.70;;;20.10;1.00;;;;;;5059086;28;20490;-77
2022/06/09 08:58:29;;;;;;;5.93;2.50;;;20.10;1.00;;;;;;5059899;28;20456;-75
2022/06/09 09:01:04;;;;;;;6.23;3.60;;;20.10;1.00;;;;;;5059438;28;20522;-76
2022/06/09 09:03:34;;;;;;;7.53;2.70;;;19.80;1.00;;;;;;5057912;28;20543;-78
2022/06/09 09:06:07;;;;;;;8.00;2.70;;;19.50;1.00;;;;;;5061240;28;20480;-77
2022/06/09 09:08:35;;;;;;;6.53;3.30;;;19.20;1.00;;;;;;5058989;28;20458;-77
2022/06/09 09:11:18;;;;;;;6.50;3.10;;;18.90;1.00;;;;;;5057702;28;20451;-75
2022/06/09 09:13:54;;;;;;;7.10;3.17;;;18.70;1.00;;;;;;5058239;28;20574;-76
2022/06/09 09:16:26;;;;;;;8.07;3.20;;;18.50;1.00;;;;;;5058857;28;20471;-76
2022/06/09 09:18:58;;;;;;;8.00;3.93;;;18.50;1.00;;;;;;5058373;28;20464;-76
2022/06/09 09:21:45;;;;;;;6.67;3.57;;;18.50;1.00;;;;;;5055895;28;20469;-75
2022/06/09 09:24:23;;;;;;;7.30;3.97;;;18.50;1.00;;;;;;5058467;28;20473;-75
2022/06/09 09:27:04;;;;;;;6.73;3.90;;;18.50;1.00;;;;;;5057623;28;20477;-75
2022/06/09 09:29:42;;;;;;;6.80;3.63;;;18.70;1.00;;;;;;5056422;28;20471;-77
2022/06/09 09:32:14;;;;;;;9.80;4.87;;;18.80;1.00;;;;;;5058666;28;20507;-76
2022/06/09 09:34:44;;;;;;;6.93;4.33;;;19.00;1.00;;;;;;5060436;28;20465;-76
2022/06/09 09:37:22;;;;;;;8.43;4.97;;;19.20;1.00;;;;;;5051035;28;20486;-75
2022/06/09 09:39:57;;;;;;;9.53;3.93;;;19.50;1.00;;;;;;5071624;28;20456;-76
2022/06/09 09:42:30;;;;;;;6.33;4.27;;;19.70;1.00;;;;;;5051582;28;20499;-76
2022/06/09 09:45:27;;;;;;;7.83;4.43;;;19.90;1.00;;;;;;5070045;28;20951;-76
2022/06/09 09:47:57;;;;;;;6.20;3.80;;;20.00;1.00;;;;;;5060249;28;20926;-79
2022/06/09 09:50:37;;;;;;;8.50;4.47;;;20.20;1.00;;;;;;5057732;28;20524;-77
2022/06/09 09:53:09;;;;;;;7.33;4.37;;;20.30;1.00;;;;;;5063407;28;20494;-77
2022/06/09 09:55:40;;;;;;;7.30;4.20;;;20.40;1.00;;;;;;5055578;28;20602;-77
2022/06/09 09:58:20;;;;;;;7.30;3.90;;;20.50;1.00;;;;;;5059772;28;20578;-79
2022/06/09 10:00:52;;;;;;;6.93;3.70;;;20.70;1.00;;;;;;5059596;28;20498;-78
2022/06/09 10:09:04;;;;;;;7.73;3.80;;;21.20;1.00;;;;;;5064418;28;20467;-78
2022/06/09 10:11:54;;;;;;;7.03;3.60;;;21.20;1.00;;;;;;5067157;28;20443;-79
2022/06/09 10:14:45;;;;;;;10.20;4.00;;;21.20;1.00;;;;;;5061690;28;20460;-78
2022/06/09 10:17:38;;;;;;;6.70;3.80;;;21.20;1.00;;;;;;5064363;28;20522;-77
2022/06/09 10:20:29;;;;;;;10.57;4.30;;;21.10;1.00;;;;;;5070561;28;21124;-78
2022/06/09 10:22:59;;;;;;;8.43;4.20;;;21.10;1.00;;;;;;5050993;28;20467;-78
2022/06/09 10:25:32;;;;;;;7.10;3.27;;;21.20;1.00;;;;;;5066843;28;20460;-78
2022/06/09 10:28:06;;;;;;;6.53;3.50;;;21.30;1.00;;;;;;5067659;28;20951;-78
2022/06/09 10:30:37;;;;;;;7.10;4.20;;;21.40;1.00;;;;;;5064861;28;20467;-77
2022/06/09 10:33:14;;;;;;;7.50;4.03;;;21.40;1.00;;;;;;5067587;28;20460;-78
2022/06/09 10:35:44;;;;;;;5.13;3.17;;;21.50;1.00;;;;;;5065601;28;20476;-77
2022/06/09 10:38:19;;;;;;;6.03;3.87;;;21.60;1.00;;;;;;5066741;28;20483;-79
2022/06/09 10:40:51;;;;;;;5.70;3.40;;;21.90;1.00;;;;;;5067062;28;20471;-78
2022/06/09 10:43:27;;;;;;;7.07;4.23;;;22.20;1.00;;;;;;5063502;28;20468;-77
2022/06/09 10:46:01;;;;;;;6.60;4.20;;;22.40;1.00;;;;;;5068400;28;20547;-77
2022/06/09 10:57:14;;;;;;;5.40;3.50;;;22.60;1.00;;;;;;5066540;28;20472;-77
2022/06/09 10:59:47;;;;;;;8.00;4.00;;;22.30;1.00;;;;;;5066225;28;20447;-79
2022/06/09 11:02:21;;;;;;;7.90;4.17;;;22.10;1.00;;;;;;5067425;28;20469;-79
2022/06/09 11:04:51;;;;;;;7.23;4.07;;;22.10;1.00;;;;;;5066580;28;20911;-76
2022/06/09 11:07:47;;;;;;;6.80;3.90;;;22.00;1.00;;;;;;5063603;27;20475;-77
2022/06/09 11:10:24;;;;;;;8.67;4.20;;;22.00;1.00;;;;;;5064923;28;20486;-79
2022/06/09 11:13:20;;;;;;;6.93;4.37;;;22.00;1.00;;;;;;5069602;28;20602;-79
2022/06/09 11:15:58;;;;;;;7.40;5.10;;;22.00;1.00;;;;;;5059544;28;20542;-81
2022/06/09 11:18:34;;;;;;;6.00;4.13;;;22.10;1.00;;;;;;5062487;28;20916;-80
2022/06/09 11:21:15;;;;;;;7.80;4.50;;;22.00;1.00;;;;;;5065949;28;20929;-80
2022/06/09 11:24:08;;;;;;;8.30;4.50;;;22.00;1.00;;;;;;5063789;28;20540;-76
2022/06/09 11:26:47;;;;;;;8.00;4.30;;;21.80;1.00;;;;;;5061093;28;20465;-76
2022/06/09 11:29:38;;;;;;;7.87;4.53;;;21.60;1.00;;;;;;5064165;28;20903;-76
2022/06/09 11:32:14;;;;;;;7.80;5.67;;;21.60;1.00;;;;;;5065572;28;20608;-76
2022/06/09 11:34:58;;;;;;;7.73;4.80;;;21.50;1.00;;;;;;5063118;28;20617;-76
2022/06/09 11:37:42;;;;;;;9.03;4.97;;;21.50;1.00;;;;;;5049860;28;20558;-77
2022/06/09 11:40:22;;;;;;;5.10;3.53;;;21.40;1.00;;;;;;5058860;28;20454;-76
2022/06/09 11:43:01;;;;;;;8.33;4.93;;;21.40;1.00;;;;;;5065179;28;20467;-75
2022/06/09 11:45:33;;;;;;;7.80;4.20;;;21.40;1.00;;;;;;5054639;28;20701;-75
2022/06/09 11:48:04;;;;;;;7.20;4.70;;;21.50;1.00;;;;;;5061310;28;20547;-76
2022/06/09 11:50:35;;;;;;;7.23;4.53;;;21.50;1.00;;;;;;5054547;28;20941;-77
2022/06/09 11:53:05;;;;;;;10.47;5.57;;;21.60;1.00;;;;;;5071366;28;20591;-77
2022/06/09 11:56:02;;;;;;;8.53;4.90;;;21.70;1.00;;;;;;5059102;28;20455;-77
2022/06/09 11:58:48;;;;;;;9.17;5.27;;;21.80;1.00;;;;;;5064824;28;20459;-77
2022/06/09 12:01:32;;;;;;;8.30;5.37;;;21.90;1.00;;;;;;5062401;28;20474;-78
2022/06/09 12:04:23;;;;;;;7.00;5.00;;;22.00;1.00;;;;;;5060501;28;20548;-77
2022/06/09 12:07:03;;;;;;;7.70;4.83;;;22.20;1.00;;;;;;5060938;28;20498;-77
2022/06/09 12:09:43;;;;;;;7.77;4.97;;;22.20;1.00;;;;;;5066246;28;20589;-75
2022/06/09 12:12:35;;;;;;;8.17;4.57;;;22.30;1.00;;;;;;5060906;28;20464;-78
2022/06/09 12:15:18;;;;;;;9.37;5.47;;;22.20;1.00;;;;;;5060225;28;20459;-76
2022/06/09 12:18:06;;;;;;;8.23;4.87;;;22.20;1.00;;;;;;5066247;28;20492;-76
2022/06/09 12:20:39;;;;;;;8.23;5.87;;;22.20;1.00;;;;;;5063198;28;20451;-78
2022/06/09 12:23:27;;;;;;;7.53;4.60;;;22.10;1.00;;;;;;5061796;28;20551;-79
2022/06/09 12:26:24;;;;;;;10.20;6.00;;;22.10;1.00;;;;;;5064313;28;20455;-76
2022/06/09 12:29:19;;;;;;;8.73;5.07;;;22.00;1.00;;;;;;5060311;28;20574;-77
2022/06/09 12:32:28;;;;;;;10.47;5.07;;;22.00;1.00;;;;;;5061004;28;20436;-77
2022/06/09 12:34:57;;;;;;;7.97;5.10;;;22.00;1.00;;;;;;5059299;28;20455;-80
2022/06/09 12:37:28;;;;;;;6.97;4.73;;;21.90;1.00;;;;;;5064615;28;20512;-79
2022/06/09 12:39:59;;;;;;;8.27;5.10;;;21.90;1.00;;;;;;5063021;28;20491;-77
2022/06/09 12:42:38;;;;;;;8.63;5.53;;;21.90;1.00;;;;;;5064645;28;20526;-76
2022/06/09 12:45:16;;;;;;;8.90;5.50;;;21.90;1.00;;;;;;5063567;28;20918;-76
2022/06/09 12:47:54;;;;;;;7.77;5.23;;;22.00;1.00;;;;;;5062689;28;20440;-78
2022/06/09 12:50:25;;;;;;;6.77;5.17;;;22.10;1.00;;;;;;5058155;28;20947;-79
2022/06/09 12:52:54;;;;;;;8.40;5.43;;;22.20;1.00;;;;;;5059244;28;20447;-78
2022/06/09 12:55:31;;;;;;;8.83;5.30;;;22.30;1.00;;;;;;5056132;28;20451;-78
2022/06/09 12:58:09;;;;;;;7.60;5.27;;;22.40;1.00;;;;;;5067013;28;20569;-77
2022/06/09 13:00:39;;;;;;;7.20;4.80;;;22.50;1.00;;;;;;5061618;28;20439;-78
2022/06/09 13:03:26;;;;;;;7.27;5.40;;;22.60;1.00;;;;;;5061442;28;20460;-80
2022/06/09 13:05:55;;;;;;;9.80;5.23;;;22.70;1.00;;;;;;5065920;28;20947;-78
2022/06/09 13:08:23;;;;;;;11.00;6.13;;;22.80;1.00;;;;;;5062352;28;20435;-79
2022/06/09 13:10:59;;;;;;;9.20;5.53;;;22.80;1.00;;;;;;5064133;28;20464;-79
2022/06/09 13:13:37;;;;;;;7.63;5.40;;;22.60;1.00;;;;;;5061054;28;20459;-79
2022/06/09 13:16:07;;;;;;;7.80;6.00;;;22.40;1.00;;;;;;5061736;28;20452;-77
2022/06/09 13:18:37;;;;;;;8.00;5.90;;;22.20;1.00;;;;;;5063517;28;20477;-78
2022/06/09 13:21:10;;;;;;;8.20;6.70;;;22.00;1.00;;;;;;5062835;28;20986;-79
2022/06/09 13:23:38;;;;;;;8.10;5.90;;;22.00;1.00;;;;;;5062746;28;20454;-79
2022/06/09 13:26:08;;;;;;;8.37;6.03;;;22.10;1.00;;;;;;5063828;28;20471;-78
2022/06/09 13:28:40;;;;;;;10.40;6.77;;;22.30;1.00;;;;;;5062970;28;20480;-79
2022/06/09 13:31:25;;;;;;;8.33;6.47;;;22.50;1.00;;;;;;5065740;28;20463;-78
2022/06/09 13:33:56;;;;;;;9.23;5.87;;;22.80;1.00;;;;;;5060954;28;20447;-79
2022/06/09 13:36:35;;;;;;;10.13;5.50;;;23.10;1.00;;;;;;5058750;28;20479;-77
2022/06/09 13:39:34;;;;;;;10.80;7.33;;;23.20;1.00;;;;;;5061721;28;20485;-80
2022/06/09 13:42:04;;;;;;;8.63;5.50;;;23.30;1.00;;;;;;5064178;28;20459;-80
2022/06/09 13:44:36;;;;;;;11.20;6.27;;;23.10;1.00;;;;;;5064669;28;20450;-79